Time;durP1;ratioP1;P1;durP2;ratioP2;P2;SDS_P1;SDS_P2;PMS_P1;PMS_P2;Temp;Humidity;BMP_temperature;BMP_pressure;BME280_temperature;BME280_humidity;BME280_pressure;Samples;Min_cycle;Max_cycle;Signal;HPM_P1;HPM_P2
2022/01/06 00:01:16;;;;;;;6.20;3.22;;;;;;;2.01;100.00;97954.47;10288142;28;20063;-78
2022/01/06 00:06:17;;;;;;;6.50;4.13;;;;;;;2.07;100.00;97937.47;10315836;28;20050;-77
2022/01/06 00:11:18;;;;;;;10.25;3.80;;;;;;;2.17;100.00;97947.22;10305239;28;20167;-78
2022/01/06 00:27:02;;;;;;;6.50;3.25;;;;;;;2.07;100.00;97963.97;10288023;28;20058;-79
2022/01/06 00:32:03;;;;;;;7.18;3.45;;;;;;;2.16;100.00;97966.81;10276226;28;20050;-78
2022/01/06 00:37:03;;;;;;;7.93;3.58;;;;;;;2.21;100.00;97974.72;10275526;28;20074;-77
2022/01/06 00:42:04;;;;;;;6.38;3.35;;;;;;;2.23;100.00;97973.38;10277628;28;20058;-78
2022/01/06 00:47:05;;;;;;;6.97;3.75;;;;;;;2.30;100.00;97973.06;10276552;28;20741;-78
2022/01/06 00:52:06;;;;;;;7.93;3.20;;;;;;;2.35;100.00;97977.53;10287235;28;20183;-78
2022/01/06 00:57:07;;;;;;;7.20;3.75;;;;;;;2.22;100.00;97982.41;10279816;28;20173;-78
2022/01/06 01:02:08;;;;;;;7.45;3.90;;;;;;;2.19;100.00;97977.63;10282244;28;20058;-78
2022/01/06 01:07:09;;;;;;;6.60;3.70;;;;;;;2.27;100.00;97989.50;10271798;28;20070;-78
2022/01/06 01:12:10;;;;;;;7.22;4.18;;;;;;;2.19;100.00;98003.31;10275846;28;20057;-78
2022/01/06 01:17:15;;;;;;;7.70;4.22;;;;;;;2.16;100.00;98017.09;10272962;28;20141;-77
2022/01/06 01:22:21;;;;;;;11.20;4.55;;;;;;;2.19;100.00;98029.78;10277593;28;20062;-79
2022/01/06 01:27:23;;;;;;;7.68;5.50;;;;;;;2.11;100.00;98038.34;10296215;28;20114;-77
2022/01/06 01:32:31;;;;;;;8.05;4.85;;;;;;;1.97;100.00;98032.84;10274377;28;20054;-78
2022/01/06 01:37:33;;;;;;;8.23;4.60;;;;;;;1.91;100.00;98037.34;10274529;28;20198;-78
2022/01/06 01:42:35;;;;;;;11.23;5.68;;;;;;;1.95;100.00;98041.06;10273883;28;20055;-77
2022/01/06 01:47:43;;;;;;;9.05;4.20;;;;;;;2.06;100.00;98041.78;10279694;28;20082;-78
2022/01/06 01:52:50;;;;;;;12.65;4.85;;;;;;;2.03;100.00;98047.63;10281602;28;20054;-77
2022/01/06 01:57:52;;;;;;;11.38;4.63;;;;;;;1.89;100.00;98065.94;10288630;28;20502;-77
2022/01/06 02:02:53;;;;;;;11.57;4.40;;;;;;;2.03;100.00;98060.09;10267097;28;20458;-77
2022/01/06 02:07:56;;;;;;;8.63;4.55;;;;;;;2.01;100.00;98065.63;10268807;28;20162;-75
2022/01/06 02:12:59;;;;;;;13.40;4.80;;;;;;;1.96;100.00;98058.50;10276519;28;20094;-76
2022/01/06 02:18:00;;;;;;;10.07;4.80;;;;;;;2.00;100.00;98064.03;10279278;28;20324;-78
2022/01/06 02:23:01;;;;;;;6.75;4.75;;;;;;;1.87;100.00;98077.88;10299472;28;20079;-78
2022/01/06 02:28:03;;;;;;;10.77;5.10;;;;;;;1.79;100.00;98071.28;10311288;28;20047;-78
2022/01/06 02:33:08;;;;;;;10.02;4.88;;;;;;;1.88;100.00;98077.59;10290034;28;20050;-77
2022/01/06 02:38:10;;;;;;;9.02;5.18;;;;;;;1.91;100.00;98074.41;10309583;28;20069;-77
2022/01/06 02:43:14;;;;;;;11.00;5.40;;;;;;;1.77;100.00;98086.63;10301811;28;20123;-77
2022/01/06 02:48:17;;;;;;;12.50;4.90;;;;;;;1.69;100.00;98080.06;10274577;28;20558;-78
2022/01/06 02:53:19;;;;;;;9.25;5.28;;;;;;;1.77;100.00;98091.16;10270817;28;20498;-78
2022/01/06 02:58:21;;;;;;;7.97;5.28;;;;;;;1.65;100.00;98086.16;10278572;28;20069;-77
2022/01/06 03:03:21;;;;;;;8.80;4.80;;;;;;;1.51;100.00;98090.41;10270965;28;20059;-77
2022/01/06 03:08:23;;;;;;;10.48;4.63;;;;;;;1.39;100.00;98110.00;10273189;28;20055;-77
2022/01/06 03:13:23;;;;;;;6.30;4.50;;;;;;;1.48;100.00;98104.19;10289684;28;20057;-78
2022/01/06 03:18:24;;;;;;;8.73;5.22;;;;;;;1.60;100.00;98107.31;10276543;28;20055;-77
2022/01/06 03:23:24;;;;;;;8.15;4.57;;;;;;;1.63;100.00;98112.06;10279548;28;20106;-77
2022/01/06 03:28:26;;;;;;;8.48;5.15;;;;;;;1.54;100.00;98111.03;10274831;28;20116;-76
2022/01/06 03:33:26;;;;;;;8.50;5.00;;;;;;;1.53;100.00;98131.41;10291513;28;20179;-79
2022/01/06 03:38:27;;;;;;;11.57;5.28;;;;;;;1.63;100.00;98120.78;10306270;28;20070;-78
2022/01/06 03:43:28;;;;;;;7.88;4.97;;;;;;;1.60;100.00;98112.63;10282264;28;20240;-78
2022/01/06 03:48:29;;;;;;;7.45;4.40;;;;;;;1.49;100.00;98129.56;10269775;28;20639;-78
2022/01/06 03:53:30;;;;;;;6.88;4.68;;;;;;;1.47;100.00;98129.06;10271264;28;20070;-78
2022/01/06 03:58:31;;;;;;;6.07;3.92;;;;;;;1.46;100.00;98130.88;10285405;28;20906;-80
2022/01/06 04:03:33;;;;;;;8.40;5.30;;;;;;;1.60;100.00;98133.78;10300497;28;20138;-81
2022/01/06 04:08:35;;;;;;;;;;;;;;;1.52;100.00;98150.19;10281907;28;20474;-79
2022/01/06 04:13:36;;;;;;;9.57;4.97;;;;;;;1.57;100.00;98166.06;10264031;28;20020;-78
2022/01/06 04:18:36;;;;;;;8.43;4.55;;;;;;;1.51;100.00;98169.75;10256485;28;20046;-78
2022/01/06 04:23:37;;;;;;;8.05;4.75;;;;;;;1.35;100.00;98179.53;10257781;28;20121;-79
2022/01/06 04:28:42;;;;;;;9.05;4.75;;;;;;;1.19;100.00;98183.25;10291970;28;20062;-80
2022/01/06 04:33:45;;;;;;;6.55;4.45;;;;;;;1.13;100.00;98179.81;10286248;28;20051;-79
2022/01/06 04:38:45;;;;;;;7.35;4.53;;;;;;;1.16;100.00;98195.16;10253011;28;20089;-76
2022/01/06 04:43:46;;;;;;;6.35;3.58;;;;;;;1.22;100.00;98202.03;10284061;28;20074;-77
2022/01/06 04:48:47;;;;;;;5.95;3.78;;;;;;;1.11;100.00;98197.78;10280217;28;20107;-76
2022/01/06 04:53:48;;;;;;;7.38;3.85;;;;;;;1.01;100.00;98205.72;10269582;28;20059;-76
2022/01/06 04:58:50;;;;;;;6.53;3.55;;;;;;;0.81;100.00;98212.53;10267794;28;20063;-77
2022/01/06 05:03:50;;;;;;;6.35;3.53;;;;;;;0.87;100.00;98225.75;10273049;28;20057;-78
2022/01/06 05:08:51;;;;;;;6.63;3.40;;;;;;;0.65;100.00;98229.41;10277802;28;20074;-76
2022/01/06 05:13:51;;;;;;;8.70;3.38;;;;;;;0.50;100.00;98232.78;10261515;28;20059;-77
2022/01/06 05:18:54;;;;;;;6.00;2.95;;;;;;;0.52;100.00;98241.22;10268696;28;20051;-77
2022/01/06 05:23:54;;;;;;;6.60;2.63;;;;;;;0.42;100.00;98241.19;10250628;28;20062;-78
2022/01/06 05:28:55;;;;;;;5.95;2.53;;;;;;;0.27;100.00;98234.03;10267968;28;20054;-77
2022/01/06 05:33:56;;;;;;;6.25;2.53;;;;;;;0.27;100.00;98251.66;10270062;28;20050;-77
2022/01/06 05:38:56;;;;;;;7.68;2.30;;;;;;;0.29;100.00;98254.88;10278823;28;20059;-79
2022/01/06 05:43:58;;;;;;;4.55;1.92;;;;;;;0.22;100.00;98249.81;10267561;28;20051;-79
2022/01/06 05:48:59;;;;;;;5.53;2.20;;;;;;;0.15;100.00;98254.53;10283303;28;20061;-78
2022/01/06 05:54:01;;;;;;;6.07;2.13;;;;;;;0.24;100.00;98266.19;10288241;28;20375;-78
2022/01/06 05:59:02;;;;;;;5.80;2.67;;;;;;;0.28;100.00;98258.56;10266373;28;20047;-78
2022/01/06 06:04:03;;;;;;;5.85;3.28;;;;;;;0.40;100.00;98261.78;10269513;28;20070;-77
2022/01/06 06:09:03;;;;;;;6.28;3.55;;;;;;;0.63;100.00;98279.03;10272824;28;20074;-78
2022/01/06 06:14:04;;;;;;;8.95;3.30;;;;;;;0.78;100.00;98283.59;10280972;28;20151;-79
2022/01/06 06:19:06;;;;;;;6.43;4.25;;;;;;;0.87;100.00;98287.31;10277199;28;20473;-77
2022/01/06 06:24:06;;;;;;;6.43;3.78;;;;;;;1.06;100.00;98292.91;10287256;28;20062;-78
2022/01/06 06:29:10;;;;;;;7.07;4.00;;;;;;;1.03;100.00;98293.44;10270286;28;20146;-77
2022/01/06 06:34:11;;;;;;;8.68;4.72;;;;;;;1.18;100.00;98277.59;10280936;28;20046;-77
2022/01/06 06:39:14;;;;;;;10.00;4.38;;;;;;;1.23;100.00;98293.50;10276768;28;20047;-78
2022/01/06 06:44:15;;;;;;;9.32;4.60;;;;;;;1.25;100.00;98312.53;10278256;28;20070;-78
2022/01/06 06:49:15;;;;;;;13.20;4.05;;;;;;;1.43;100.00;98317.31;10277398;28;20229;-78
2022/01/06 06:54:16;;;;;;;12.57;4.95;;;;;;;1.51;100.00;98313.38;10289210;28;20042;-78
2022/01/06 06:59:17;;;;;;;9.15;4.60;;;;;;;1.64;100.00;98336.66;10291271;28;20131;-77
2022/01/06 07:04:20;;;;;;;6.88;4.47;;;;;;;1.61;100.00;98337.19;10288709;28;20070;-78
2022/01/06 07:09:20;;;;;;;7.60;4.30;;;;;;;1.63;100.00;98345.63;10297754;28;20055;-77
2022/01/06 07:14:21;;;;;;;9.15;4.97;;;;;;;1.62;100.00;98365.22;10299217;28;20062;-77
2022/01/06 07:19:21;;;;;;;8.27;4.40;;;;;;;1.68;100.00;98363.38;10296417;28;20058;-76
2022/01/06 07:24:26;;;;;;;10.88;4.75;;;;;;;1.59;100.00;98362.31;10317831;28;20079;-76
2022/01/06 07:29:29;;;;;;;8.95;4.53;;;;;;;1.65;100.00;98377.16;10305778;28;20122;-75
2022/01/06 07:34:29;;;;;;;12.82;5.38;;;;;;;1.59;100.00;98384.28;10303768;28;20043;-77
2022/01/06 07:39:32;;;;;;;9.10;5.13;;;;;;;1.60;100.00;98388.50;10308600;28;20073;-77
2022/01/06 07:44:32;;;;;;;11.75;5.75;;;;;;;1.71;100.00;98392.75;10309613;28;20062;-78
2022/01/06 07:49:34;;;;;;;11.90;4.97;;;;;;;1.74;100.00;98396.75;10286030;28;20051;-77
2022/01/06 07:54:34;;;;;;;15.30;5.50;;;;;;;1.73;100.00;98404.91;10320916;28;20047;-77
2022/01/06 07:59:35;;;;;;;16.80;4.88;;;;;;;1.79;100.00;98409.97;10325135;28;20043;-77
2022/01/06 08:04:37;;;;;;;13.13;5.50;;;;;;;1.81;100.00;98425.56;10326083;28;20410;-78
2022/01/06 08:09:45;;;;;;;13.05;5.88;;;;;;;1.98;100.00;98429.56;10280029;28;20082;-78
2022/01/06 08:14:47;;;;;;;11.43;6.53;;;;;;;1.98;100.00;98442.81;10277221;28;20135;-79
2022/01/06 08:19:49;;;;;;;11.15;6.05;;;;;;;2.07;100.00;98439.66;10270545;28;20058;-79
2022/01/06 08:24:52;;;;;;;13.05;7.15;;;;;;;2.06;100.00;98448.66;10283261;28;20058;-77
2022/01/06 08:29:54;;;;;;;20.52;8.77;;;;;;;2.11;100.00;98453.97;10281841;28;20102;-76
2022/01/06 08:34:56;;;;;;;8.85;5.32;;;;;;;2.17;100.00;98453.69;10272861;28;20512;-78
2022/01/06 08:39:56;;;;;;;10.02;6.10;;;;;;;2.15;100.00;98468.25;10268730;28;20555;-74
2022/01/06 08:44:57;;;;;;;8.98;5.57;;;;;;;2.20;100.00;98469.06;10275061;28;20063;-74
2022/01/06 08:49:58;;;;;;;13.68;5.50;;;;;;;2.15;100.00;98476.19;10270175;28;20047;-75
2022/01/06 08:54:58;;;;;;;8.80;4.65;;;;;;;2.17;100.00;98485.47;10271852;28;20062;-77
2022/01/06 09:00:00;;;;;;;10.68;5.05;;;;;;;2.22;100.00;98495.28;10283123;28;20055;-75
2022/01/06 09:05:05;;;;;;;12.98;4.75;;;;;;;2.19;100.00;98499.22;10281207;28;20450;-77
2022/01/06 09:10:07;;;;;;;9.82;5.18;;;;;;;2.34;100.00;98501.09;10271254;28;20483;-77
2022/01/06 09:15:09;;;;;;;9.50;4.35;;;;;;;2.38;100.00;98494.25;10291458;28;20050;-76
2022/01/06 09:20:11;;;;;;;9.70;5.32;;;;;;;2.42;100.00;98516.47;10287636;28;20097;-77
2022/01/06 09:25:14;;;;;;;10.65;4.00;;;;;;;2.37;100.00;98508.50;10284879;28;20081;-76
2022/01/06 09:30:17;;;;;;;8.70;4.23;;;;;;;2.39;100.00;98518.88;10269594;28;20066;-78
2022/01/06 09:35:17;;;;;;;8.70;4.15;;;;;;;2.53;100.00;98533.16;10262827;28;20074;-76
2022/01/06 09:40:18;;;;;;;10.05;5.30;;;;;;;2.73;100.00;98529.72;10277150;28;20220;-78
2022/01/06 09:45:21;;;;;;;9.05;4.45;;;;;;;2.55;100.00;98534.50;10278423;28;20109;-77
2022/01/06 09:50:22;;;;;;;11.10;4.18;;;;;;;2.61;100.00;98535.31;10289627;28;20050;-76
2022/01/06 09:55:23;;;;;;;9.05;4.00;;;;;;;2.64;100.00;98544.56;10281505;28;20110;-76
2022/01/06 10:00:27;;;;;;;11.88;5.78;;;;;;;2.65;100.00;98539.03;10264857;28;20232;-77
2022/01/06 10:05:40;;;;;;;5.35;3.70;;;;;;;2.84;100.00;98539.28;10292999;28;20062;-76
2022/01/06 10:10:42;;;;;;;9.60;3.72;;;;;;;3.01;100.00;98539.00;10258504;28;20138;-76
2022/01/06 10:15:42;;;;;;;5.07;3.25;;;;;;;2.90;100.00;98540.06;10250474;28;20058;-77
2022/01/06 10:20:47;;;;;;;4.95;2.85;;;;;;;2.72;100.00;98549.34;10274209;28;20054;-76
2022/01/06 10:25:50;;;;;;;6.82;3.30;;;;;;;2.57;100.00;98552.78;10267718;28;20051;-77
2022/01/06 10:30:51;;;;;;;5.15;3.92;;;;;;;2.66;100.00;98551.22;10281788;28;20211;-79
2022/01/06 10:35:52;;;;;;;5.25;2.85;;;;;;;2.62;100.00;98557.28;10266762;28;20153;-76
2022/01/06 10:40:52;;;;;;;8.35;3.53;;;;;;;2.54;100.00;98561.25;10277273;28;20094;-78
2022/01/06 10:46:01;;;;;;;7.13;3.42;;;;;;;2.89;100.00;98571.09;10263712;28;20062;-76
2022/01/06 10:51:02;;;;;;;3.47;2.25;;;;;;;2.62;100.00;98563.38;10263058;28;20058;-77
2022/01/06 10:56:02;;;;;;;10.50;4.53;;;;;;;3.16;100.00;98564.72;10262289;28;20122;-77
2022/01/06 11:01:04;;;;;;;6.00;2.65;;;;;;;3.47;100.00;98557.47;10273456;28;20153;-77
2022/01/06 11:06:06;;;;;;;5.03;2.30;;;;;;;3.76;100.00;98555.03;10285706;28;20054;-77
2022/01/06 11:16:13;;;;;;;3.25;2.10;;;;;;;3.08;100.00;98563.38;10331047;28;20075;-77
2022/01/06 11:21:17;;;;;;;4.68;1.90;;;;;;;3.03;100.00;98584.63;10301063;28;20039;-80
2022/01/06 11:26:22;;;;;;;3.33;2.08;;;;;;;3.01;100.00;98589.38;10317313;28;20071;-73
2022/01/06 11:31:37;;;;;;;9.70;2.25;;;;;;;3.05;100.00;98577.97;10290258;28;20058;-77
2022/01/06 11:36:38;;;;;;;8.10;2.70;;;;;;;3.18;100.00;98584.59;10281657;28;20055;-76
2022/01/06 11:41:40;;;;;;;7.72;2.65;;;;;;;3.03;100.00;98587.25;10287011;28;20055;-76
2022/01/06 11:46:44;;;;;;;5.55;2.03;;;;;;;2.88;100.00;98582.75;10285594;28;20082;-77
2022/01/06 11:51:45;;;;;;;;;;;;;;;2.85;100.00;98594.69;10272191;28;20085;-77
2022/01/06 11:56:51;;;;;;;4.40;2.55;;;;;;;3.05;100.00;98585.94;10278657;28;20282;-77
2022/01/06 12:01:53;;;;;;;6.50;3.13;;;;;;;3.10;100.00;98577.97;10269732;28;20419;-77
2022/01/06 12:07:08;;;;;;;7.63;3.00;;;;;;;2.96;100.00;98584.88;10279797;28;20054;-74
2022/01/06 12:12:10;;;;;;;5.70;2.88;;;;;;;2.80;100.00;98592.03;10272297;28;20050;-73
2022/01/06 12:17:11;;;;;;;4.55;2.20;;;;;;;2.61;100.00;98598.88;10285172;28;20050;-78
2022/01/06 12:22:12;;;;;;;5.63;2.22;;;;;;;2.69;100.00;98601.03;10282582;28;20059;-79
2022/01/06 12:27:15;;;;;;;3.80;1.98;;;;;;;2.61;100.00;98614.00;10274898;28;20052;-77
2022/01/06 12:32:20;;;;;;;4.80;2.20;;;;;;;2.58;100.00;98606.59;10312189;28;20050;-79
2022/01/06 12:37:28;;;;;;;6.07;1.98;;;;;;;3.16;100.00;98597.31;10283277;28;20047;-79
2022/01/06 12:42:29;;;;;;;4.47;2.28;;;;;;;4.48;100.00;98590.78;10291066;28;20211;-79
2022/01/06 12:47:29;;;;;;;4.03;1.90;;;;;;;5.71;100.00;98583.34;10294674;28;20110;-79
2022/01/06 12:52:34;;;;;;;4.18;1.67;;;;;;;6.26;100.00;98568.59;10292427;28;20050;-78
2022/01/06 12:57:38;;;;;;;2.55;1.58;;;;;;;5.69;100.00;98577.53;10323716;28;20077;-78
2022/01/06 13:02:38;;;;;;;4.90;1.23;;;;;;;5.74;100.00;98585.44;10323328;28;20042;-78
2022/01/06 13:07:40;;;;;;;3.72;1.30;;;;;;;4.89;100.00;98580.66;10310946;28;20073;-82
2022/01/06 13:12:46;;;;;;;3.65;1.35;;;;;;;3.85;100.00;98594.00;10286409;28;20082;-78
2022/01/06 13:18:07;;;;;;;1.70;1.00;;;;;;;3.74;100.00;98595.09;10288689;28;20406;-78
2022/01/06 13:28:36;;;;;;;2.65;1.40;;;;;;;3.76;100.00;98597.50;10296128;28;20437;-79
2022/01/06 13:33:36;;;;;;;3.10;1.60;;;;;;;3.97;100.00;98602.44;10298192;28;20043;-79
2022/01/06 13:38:37;;;;;;;5.53;2.00;;;;;;;3.37;100.00;98611.34;10289439;28;20510;-77
2022/01/06 13:43:41;;;;;;;1.70;1.10;;;;;;;3.32;100.00;98620.13;10288168;28;20090;-78
2022/01/06 13:48:48;;;;;;;2.05;1.83;;;;;;;3.25;100.00;98619.59;10292721;28;20047;-79
2022/01/06 13:53:53;;;;;;;2.50;1.40;;;;;;;3.09;100.00;98616.16;10282266;28;20046;-78
2022/01/06 13:58:54;;;;;;;2.60;1.58;;;;;;;3.23;100.00;98627.03;10295972;28;20058;-78
2022/01/06 14:03:56;;;;;;;2.17;1.52;;;;;;;3.25;100.00;98632.06;10293467;28;20110;-76
2022/01/06 14:08:57;;;;;;;4.93;1.80;;;;;;;3.34;100.00;98628.59;10297718;28;20141;-79
2022/01/06 14:13:58;;;;;;;3.45;1.40;;;;;;;3.34;100.00;98633.13;10320297;28;20065;-79
2022/01/06 14:19:04;;;;;;;2.25;1.60;;;;;;;3.54;100.00;98632.28;10315522;28;20515;-79
2022/01/06 14:24:06;;;;;;;2.78;1.88;;;;;;;3.45;100.00;98655.13;10306190;28;20078;-79
2022/01/06 14:29:08;;;;;;;2.23;1.20;;;;;;;3.49;100.00;98649.03;10336061;28;20100;-79
2022/01/06 14:34:09;;;;;;;4.72;1.60;;;;;;;3.58;100.00;98654.59;10310136;28;20039;-78
2022/01/06 14:39:09;;;;;;;3.88;2.30;;;;;;;3.60;100.00;98660.44;10315039;28;20099;-80
2022/01/06 14:44:11;;;;;;;9.45;5.70;;;;;;;3.70;100.00;98657.75;10332999;28;20043;-77
2022/01/06 14:49:13;;;;;;;5.70;2.78;;;;;;;3.38;100.00;98669.47;10303105;28;20054;-79
2022/01/06 14:54:14;;;;;;;2.88;1.33;;;;;;;3.24;100.00;98683.53;10275020;28;20660;-81
2022/01/06 14:59:16;;;;;;;3.97;1.50;;;;;;;3.18;100.00;98684.56;10287653;28;20059;-79
2022/01/06 15:04:17;;;;;;;7.53;3.42;;;;;;;2.97;100.00;98686.41;10282051;28;20395;-79
2022/01/06 15:09:18;;;;;;;5.97;3.20;;;;;;;2.68;100.00;98691.41;10293422;28;20050;-79
2022/01/06 15:14:18;;;;;;;4.47;2.45;;;;;;;2.36;100.00;98704.78;10280141;28;20047;-78
2022/01/06 15:19:18;;;;;;;3.20;2.00;;;;;;;2.25;100.00;98714.53;10277149;28;20054;-78
2022/01/06 15:24:20;;;;;;;4.55;1.90;;;;;;;2.03;100.00;98720.00;10273285;28;20059;-79
2022/01/06 15:29:22;;;;;;;5.73;2.03;;;;;;;1.93;100.00;98720.72;10272045;28;20165;-79
2022/01/06 15:34:25;;;;;;;5.95;2.38;;;;;;;1.72;100.00;98734.84;10273772;28;20295;-79
2022/01/06 15:39:26;;;;;;;5.82;3.45;;;;;;;1.60;100.00;98744.81;10269689;28;20047;-78
2022/01/06 15:44:27;;;;;;;6.38;3.58;;;;;;;1.32;100.00;98756.50;10282456;28;20130;-78
2022/01/06 15:49:29;;;;;;;7.65;3.63;;;;;;;1.26;100.00;98765.41;10282283;28;20055;-79
2022/01/06 15:54:29;;;;;;;8.70;4.57;;;;;;;0.92;100.00;98765.63;10277028;28;20061;-78
2022/01/06 15:59:35;;;;;;;6.35;4.57;;;;;;;0.72;100.00;98773.28;10298926;28;20061;-80
2022/01/06 16:09:56;;;;;;;8.27;4.60;;;;;;;0.47;100.00;98790.44;10278042;28;20055;-78
2022/01/06 16:14:57;;;;;;;7.40;5.10;;;;;;;0.42;100.00;98797.50;10294456;28;20051;-77
2022/01/06 16:19:57;;;;;;;11.18;5.25;;;;;;;0.31;100.00;98801.03;10304348;28;20070;-80
2022/01/06 16:24:58;;;;;;;10.98;6.20;;;;;;;0.12;100.00;98793.38;10282434;28;20070;-78
2022/01/06 16:30:07;;;;;;;10.07;6.75;;;;;;;-0.05;100.00;98803.16;10323160;28;20054;-77
2022/01/06 16:35:08;;;;;;;11.50;6.57;;;;;;;-0.05;100.00;98808.44;10310310;28;20062;-78
2022/01/06 16:40:09;;;;;;;9.85;5.43;;;;;;;-0.16;100.00;98817.25;10303338;28;20065;-80
2022/01/06 16:45:10;;;;;;;10.32;5.60;;;;;;;-0.23;100.00;98820.03;10295860;28;20062;-79
2022/01/06 16:50:11;;;;;;;11.82;5.88;;;;;;;-0.15;100.00;98829.38;10289345;28;20055;-77
2022/01/06 16:55:12;;;;;;;10.25;5.53;;;;;;;-0.15;100.00;98826.75;10314325;28;20061;-78
2022/01/06 17:00:13;;;;;;;10.57;6.30;;;;;;;-0.37;100.00;98824.78;10307462;28;20054;-77
2022/01/06 17:05:15;;;;;;;10.40;5.82;;;;;;;-0.51;100.00;98836.69;10292420;28;20065;-78
2022/01/06 17:10:16;;;;;;;8.18;5.95;;;;;;;-0.71;100.00;98831.06;10291042;28;20054;-78
2022/01/06 17:15:17;;;;;;;10.43;6.03;;;;;;;-0.84;100.00;98836.59;10285450;28;20099;-78
2022/01/06 17:20:17;;;;;;;10.73;5.97;;;;;;;-0.96;100.00;98837.44;10288006;28;20380;-78
2022/01/06 17:25:18;;;;;;;11.30;6.10;;;;;;;-1.17;100.00;98843.34;10284370;28;20121;-77
2022/01/06 17:30:19;;;;;;;14.80;6.90;;;;;;;-1.12;100.00;98855.81;10277791;28;20097;-78
2022/01/06 17:35:22;;;;;;;12.57;7.10;;;;;;;-1.35;100.00;98848.78;10305647;28;20059;-81
2022/01/06 17:40:24;;;;;;;12.98;8.00;;;;;;;-1.40;100.00;98851.28;10295385;28;20152;-81
2022/01/06 17:45:25;;;;;;;12.10;8.00;;;;;;;-1.38;100.00;98854.47;10294294;28;20071;-80
2022/01/06 17:55:52;;;;;;;20.80;9.82;;;;;;;-1.54;100.00;98861.25;10269472;28;20056;-84
2022/01/06 18:00:55;;;;;;;15.05;9.55;;;;;;;-1.54;100.00;98864.69;10259361;28;20043;-80
2022/01/06 18:06:02;;;;;;;12.98;9.05;;;;;;;-1.63;100.00;98871.34;10231945;29;20151;-80
2022/01/06 18:11:19;;;;;;;15.35;9.35;;;;;;;-1.76;100.00;98877.59;10230128;29;20061;-80
2022/01/06 18:16:24;;;;;;;18.58;11.13;;;;;;;-1.77;100.00;98891.78;10210838;29;20044;-80
2022/01/06 18:21:26;;;;;;;16.33;10.20;;;;;;;-1.79;100.00;98888.59;10241979;28;21231;-79
2022/01/06 18:26:38;;;;;;;23.80;12.55;;;;;;;-1.83;100.00;98897.97;10356435;28;20054;-79
2022/01/06 18:31:42;;;;;;;36.67;16.88;;;;;;;-1.77;100.00;98909.41;10371689;28;20058;-80
2022/01/06 18:36:52;;;;;;;24.77;12.98;;;;;;;-1.85;100.00;98910.53;10377103;28;20072;-80
2022/01/06 18:41:57;;;;;;;27.15;12.90;;;;;;;-1.96;100.00;98902.63;10410424;28;20044;-79
2022/01/06 18:47:15;;;;;;;21.27;12.32;;;;;;;-1.98;100.00;98907.34;10413439;28;20053;-80
2022/01/06 18:52:19;;;;;;;21.60;12.60;;;;;;;-2.09;100.00;98901.81;10423506;23;20181;-80
2022/01/06 18:57:39;;;;;;;21.23;13.55;;;;;;;-2.10;100.00;98905.47;10352765;28;20038;-83
2022/01/06 19:02:59;;;;;;;25.55;14.45;;;;;;;-1.98;100.00;98908.13;10320311;28;20092;-80
2022/01/06 19:08:05;;;;;;;22.55;12.52;;;;;;;-2.02;100.00;98906.97;10354771;28;20062;-82
2022/01/06 19:13:38;;;;;;;24.13;14.52;;;;;;;-2.22;100.00;98912.53;10360758;28;20081;-81
2022/01/06 19:18:47;;;;;;;29.02;15.30;;;;;;;-2.36;100.00;98906.66;10385691;28;20062;-82
2022/01/06 19:23:49;;;;;;;26.33;14.80;;;;;;;-2.38;100.00;98910.50;10338485;28;20077;-82
2022/01/06 19:28:58;;;;;;;23.05;12.68;;;;;;;-2.52;100.00;98907.28;10353854;28;20045;-82
2022/01/06 19:34:08;;;;;;;30.67;16.23;;;;;;;-2.42;100.00;98907.53;10343035;28;20106;-81
2022/01/06 19:39:10;;;;;;;22.05;14.50;;;;;;;-2.53;100.00;98910.13;10297265;28;20070;-81
2022/01/06 19:44:18;;;;;;;26.17;16.02;;;;;;;-2.49;100.00;98916.53;10304079;28;20061;-82
2022/01/06 19:49:19;;;;;;;31.85;19.65;;;;;;;-2.61;100.00;98909.41;10310225;28;20039;-81
2022/01/06 19:54:25;;;;;;;28.93;16.33;;;;;;;-2.62;100.00;98915.69;10281267;28;20055;-81
2022/01/06 19:59:28;;;;;;;33.25;19.17;;;;;;;-2.51;100.00;98922.03;10258009;28;20102;-82
2022/01/06 20:05:56;;;;;;;26.02;15.50;;;;;;;-2.52;100.00;98925.69;10261960;28;20075;-81
2022/01/06 20:11:29;;;;;;;27.65;15.10;;;;;;;-2.59;100.00;98933.63;10193940;29;20115;-83
2022/01/06 20:16:30;;;;;;;23.58;13.50;;;;;;;-2.65;100.00;98926.66;10207381;29;20040;-82
2022/01/06 20:23:14;;;;;;;23.60;12.05;;;;;;;-2.74;100.00;98920.09;10185963;29;20147;-81
2022/01/06 20:28:52;;;;;;;21.10;11.40;;;;;;;-2.87;100.00;98917.63;10172953;28;20126;-82
2022/01/06 20:34:38;;;;;;;19.88;12.50;;;;;;;-2.93;100.00;98916.66;10260332;28;20079;-81
2022/01/06 20:39:44;;;;;;;26.20;14.75;;;;;;;-2.88;100.00;98908.13;10279230;28;20139;-84
2022/01/06 20:44:47;;;;;;;27.02;16.23;;;;;;;-2.93;100.00;98915.84;10289138;28;20106;-80
2022/01/06 20:55:07;;;;;;;31.05;15.98;;;;;;;-2.94;100.00;98930.81;10276479;28;20051;-82
2022/01/06 21:00:15;;;;;;;24.80;14.00;;;;;;;-3.03;100.00;98929.50;10314849;28;20039;-82
2022/01/06 21:05:18;;;;;;;27.85;15.38;;;;;;;-3.03;100.00;98940.00;10320056;28;20040;-82
2022/01/06 21:10:21;;;;;;;21.67;12.43;;;;;;;-3.23;100.00;98949.91;10313950;28;20102;-83
2022/01/06 21:15:28;;;;;;;21.33;12.23;;;;;;;-3.27;100.00;98933.00;10307039;28;20050;-81
2022/01/06 21:20:29;;;;;;;31.63;15.38;;;;;;;-3.22;100.00;98931.31;10304351;28;20051;-79
2022/01/06 21:25:37;;;;;;;24.35;13.40;;;;;;;-3.28;100.00;98929.56;10304316;28;20071;-78
2022/01/06 21:30:39;;;;;;;20.33;13.45;;;;;;;-3.32;100.00;98930.22;10284694;28;20051;-79
2022/01/06 21:35:40;;;;;;;21.63;13.40;;;;;;;-3.35;100.00;98926.22;10249407;28;20098;-79
2022/01/06 21:40:42;;;;;;;20.10;11.85;;;;;;;-3.34;100.00;98925.19;10259358;28;20049;-80
2022/01/06 21:45:46;;;;;;;22.38;12.85;;;;;;;-3.33;100.00;98918.91;10280822;28;20051;-82
2022/01/06 21:50:49;;;;;;;22.40;12.23;;;;;;;-3.34;100.00;98927.00;10287030;28;20061;-81
2022/01/06 21:55:50;;;;;;;21.58;12.90;;;;;;;-3.35;100.00;98930.66;10285148;28;20055;-80
2022/01/06 22:00:50;;;;;;;23.88;11.82;;;;;;;-3.39;100.00;98937.34;10288041;28;20050;-79
2022/01/06 22:05:51;;;;;;;18.67;10.82;;;;;;;-3.39;100.00;98935.50;10268837;28;20102;-82
2022/01/06 22:10:53;;;;;;;23.77;13.43;;;;;;;-3.35;100.00;98934.09;10297062;28;20050;-80
2022/01/06 22:15:59;;;;;;;18.33;11.55;;;;;;;-3.40;100.00;98933.91;10296082;28;20116;-80
2022/01/06 22:21:00;;;;;;;24.85;13.23;;;;;;;-3.42;100.00;98938.56;10289520;28;20059;-80
2022/01/06 22:26:05;;;;;;;20.02;11.77;;;;;;;-3.51;100.00;98937.25;10294246;28;20424;-81
2022/01/06 22:31:07;;;;;;;26.60;13.55;;;;;;;-3.43;100.00;98926.47;10258477;28;20066;-80
2022/01/06 22:36:09;;;;;;;;;;;;;;;-3.55;100.00;98925.59;10287468;28;20129;-81
2022/01/06 22:41:10;;;;;;;25.13;12.38;;;;;;;-3.51;100.00;98927.56;10284580;28;19954;-80
2022/01/06 22:46:12;;;;;;;23.00;12.65;;;;;;;-3.63;100.00;98926.66;10284071;28;20047;-80
2022/01/06 22:51:13;;;;;;;20.92;12.93;;;;;;;-3.70;100.00;98922.47;10299586;28;20087;-81
2022/01/06 22:56:14;;;;;;;18.90;11.65;;;;;;;-3.73;100.00;98913.25;10303310;28;20142;-83
2022/01/06 23:01:14;;;;;;;18.17;10.50;;;;;;;-3.74;100.00;98917.69;10301856;28;20237;-80
2022/01/06 23:06:15;;;;;;;19.10;10.88;;;;;;;-3.75;100.00;98912.63;10295266;28;20498;-79
2022/01/06 23:11:16;;;;;;;25.10;11.65;;;;;;;-3.74;100.00;98912.44;10323178;28;20051;-79
2022/01/06 23:16:18;;;;;;;21.27;11.20;;;;;;;-3.84;100.00;98899.00;10290629;28;20054;-80
2022/01/06 23:21:20;;;;;;;21.25;11.77;;;;;;;-3.76;100.00;98898.72;10284848;28;20031;-81
2022/01/06 23:26:22;;;;;;;20.23;11.15;;;;;;;-3.84;100.00;98893.75;10298437;28;20058;-80
2022/01/06 23:31:23;;;;;;;19.33;11.40;;;;;;;-3.83;100.00;98878.81;10307851;28;20058;-79
2022/01/06 23:36:26;;;;;;;20.00;11.38;;;;;;;-3.85;100.00;98880.84;10305341;28;20052;-79
2022/01/06 23:41:26;;;;;;;19.10;11.20;;;;;;;-3.87;100.00;98870.56;10309524;28;20116;-81
2022/01/06 23:46:28;;;;;;;22.00;11.57;;;;;;;-3.76;100.00;98875.09;10302339;28;20055;-81
2022/01/06 23:51:30;;;;;;;22.05;12.43;;;;;;;-3.79;100.00;98877.38;10298528;28;20114;-80